Flight Track Log - Related Links

Times and Time Zones

All times are in EDT time to prevent confusion due to time zone crossing. See the ASA603 flight status page for this flight to view local times or setup timezone preferences in your user account.

Time Position Orientation Groundspeed Altitude Reporting Facility
EDT Latitude Longitude Course Direction KTS MPH feet Rate Location/Type
Mon 10:05:17 AM 36.0756 -115.1950 227° Southwest 194 223 3,900  Level Los Angeles Center
Mon 10:06:59 AM 36.0097 -115.2822 227° Southwest 265 305 7,700 2,540 Climbing Los Angeles Center
Mon 10:08:00 AM 35.9494 -115.3361 216° Southwest 275 316 10,800 2,780 Climbing Los Angeles Center
Mon 10:09:02 AM 35.9389 -115.4392 263° West 297 342 13,400 2,732 Climbing Los Angeles Center
Mon 10:10:03 AM 35.9292 -115.5650 265° West 329 379 16,400 2,683 Climbing Los Angeles Center
Mon 10:11:05 AM 35.9192 -115.6817 264° West 341 392 18,900 2,341 Climbing Los Angeles Center
Mon 10:12:06 AM 35.9083 -115.8133 264° West 359 413 21,200 1,805 Climbing Los Angeles Center
Mon 10:14:00 AM 35.9559 -116.0392 321° Northwest  Level FlightAware Approximate
Mon 10:15:11 AM 36.0922 -116.1225 321° Northwest 407 468 26,300  Level Los Angeles Center
Mon 10:17:15 AM 36.2656 -116.3489 314° West 427 491 28,900 1,459 Climbing Los Angeles Center
Mon 10:18:16 AM 36.3517 -116.4642 313° West 450 518 30,800 1,005 Climbing Los Angeles Center
Mon 10:20:00 AM 36.4835 -116.6563 318° Northwest  Level FlightAware Approximate
Mon 10:20:20 AM 36.5308 -116.7006 318° Northwest 452 520 32,000  Level Los Angeles Center
Mon 10:21:21 AM 36.6097 -116.7828 320° Northwest 461 531 32,000  Level Los Angeles Center
Mon 10:22:23 AM 36.7547 -116.8889 330° Northwest 465 535 32,000  Level Los Angeles Center
Mon 10:23:25 AM 36.8547 -116.9672 328° Northwest 467 537 32,000  Level Los Angeles Center
Mon 10:24:12 AM 36.9433 -117.0386 327° Northwest 469 540 32,000  Level Oakland Center
Mon 10:25:13 AM 37.0550 -117.1222 329° Northwest 469 540 32,000  Level Oakland Center
Mon 10:27:32 AM 37.3256 -117.3294 329° Northwest 476 548 32,000  Level Los Angeles Center
Mon 10:28:34 AM 37.4458 -117.4053 333° Northwest 481 554 32,000  Level Los Angeles Center
Mon 10:29:18 AM 37.5408 -117.4667 333° Northwest 481 554 32,000  Level Oakland Center
Mon 10:31:39 AM 37.7814 -117.6797 325° Northwest 474 545 32,000  Level Los Angeles Center
Mon 10:32:40 AM 37.8886 -117.7811 323° Northwest 476 548 32,000  Level Los Angeles Center
Mon 10:33:42 AM 38.0164 -117.9050 323° Northwest 476 548 32,000  Level Los Angeles Center
Mon 10:34:23 AM 38.0789 -117.9672 322° Northwest 478 550 32,000  Level Oakland Center
Mon 10:35:24 AM 38.1850 -118.0717 322° Northwest 481 554 32,000  Level Oakland Center
Mon 10:36:25 AM 38.2828 -118.1672 323° Northwest 478 550 32,000  Level Oakland Center
Mon 10:37:26 AM 38.4092 -118.2922 322° Northwest 480 552 32,000  Level Oakland Center
Mon 10:38:28 AM 38.5133 -118.3947 322° Northwest 474 545 32,000  Level Oakland Center
Mon 10:39:29 AM 38.6172 -118.4989 322° Northwest 473 544 32,000  Level Oakland Center
Mon 10:40:30 AM 38.7222 -118.6022 322° Northwest 475 547 32,000  Level Oakland Center
Mon 10:41:31 AM 38.8256 -118.7072 322° Northwest 474 545 32,000  Level Oakland Center
Mon 10:42:32 AM 38.9308 -118.8133 322° Northwest 477 549 32,000  Level Oakland Center
Mon 10:43:33 AM 39.0353 -118.9192 322° Northwest 476 548 32,000  Level Oakland Center
Mon 10:44:34 AM 39.1403 -119.0261 322° Northwest 477 549 32,000  Level Oakland Center
Mon 10:45:36 AM 39.2503 -119.1208 326° Northwest 473 544 32,000  Level Oakland Center
Mon 10:47:10 AM 39.4464 -119.2153 340° North 465 535 32,000  Level Seattle Center
Mon 10:48:39 AM 39.6167 -119.2983 339° North 464 534 32,000  Level Oakland Center
Mon 10:49:40 AM 39.7383 -119.3561 340° North 464 534 32,000  Level Oakland Center
Mon 10:50:41 AM 39.8589 -119.4164 339° North 464 534 32,000  Level Oakland Center
Mon 10:51:42 AM 39.9797 -119.4756 339° North 464 534 32,000  Level Oakland Center
Mon 10:53:16 AM 40.1756 -119.5714 340° North 461 531 32,000  Level Seattle Center
Mon 10:53:45 AM 40.2217 -119.5939 340° North 463 533 32,000  Level Oakland Center
Mon 10:55:18 AM 40.4161 -119.6897 339° North 457 526 32,000  Level Seattle Center
Mon 10:57:00 AM 40.6150 -119.7440 348° North  Level FlightAware Approximate
Mon 10:57:49 AM 40.7264 -119.8486 348° North 455 524 32,000  Level Oakland Center
Mon 10:58:50 AM 40.8458 -119.9067 340° North 456 525 32,000  Level Oakland Center
Mon 10:59:22 AM 40.8953 -119.9314 339° North 462 532 32,000  Level Seattle Center
Mon 11:00:23 AM 41.0147 -119.9914 339° North 458 527 32,000  Level Seattle Center
Mon 11:01:24 AM 41.1344 -120.0522 339° North 460 529 32,000  Level Seattle Center
Mon 11:02:25 AM 41.2814 -120.1247 340° North 468 539 32,000  Level Seattle Center
Mon 11:03:26 AM 41.4006 -120.1850 339° North 462 532 32,000  Level Seattle Center
Mon 11:04:27 AM 41.5186 -120.2464 339° North 459 528 32,000  Level Seattle Center
Mon 11:05:28 AM 41.6356 -120.3086 338° Northwest 455 524 32,000  Level Seattle Center
Mon 11:07:29 AM 41.8703 -120.4344 338° Northwest 452 520 32,000  Level Seattle Center
Mon 11:08:30 AM 41.9925 -120.4956 340° North 465 535 32,000  Level Seattle Center
Mon 11:09:31 AM 42.1136 -120.5589 339° North 469 540 32,000  Level Seattle Center
Mon 11:10:32 AM 42.2331 -120.6217 339° North 465 535 32,000  Level Seattle Center
Mon 11:11:33 AM 42.3531 -120.6839 339° North 463 533 32,000  Level Seattle Center
Mon 11:12:34 AM 42.4714 -120.7469 339° North 460 529 32,000  Level Seattle Center
Mon 11:14:00 AM 42.6332 -120.8231 341° North  Level FlightAware Approximate
Mon 11:14:36 AM 42.7308 -120.8850 341° North 457 526 32,000  Level Seattle Center
Mon 11:16:00 AM 42.8892 -120.9583 341° North  Level FlightAware Approximate
Mon 11:17:38 AM 43.0847 -121.0742 338° Northwest 462 532 33,000  Level Seattle Center
Mon 11:18:39 AM 43.2061 -121.1411 338° Northwest 468 539 34,000 492 Climbing Seattle Center
Mon 11:19:40 AM 43.3253 -121.2053 339° North 461 531 34,000  Level Seattle Center
Mon 11:21:42 AM 43.5247 -121.3997 325° Northwest 461 531 34,000  Level Seattle Center
Mon 11:23:00 AM 43.6547 -121.3864 338° Northwest  Level FlightAware Approximate
Mon 11:23:00 AM 43.6736 -121.4569 344° North  Level FlightAware Approximate
Mon 11:23:43 AM 43.6803 -121.6603 344° North 456 525 34,000  Level Seattle Center
Mon 11:24:44 AM 43.7989 -121.7117 343° North 449 517 34,000  Level Seattle Center
Mon 11:25:45 AM 43.9297 -121.7672 343° North 447 514 34,000  Level Seattle Center
Mon 11:26:46 AM 44.0472 -121.8192 342° North 443 510 34,000  Level Seattle Center
Mon 11:28:00 AM 44.1931 -121.8391 354° North  Level Estimated
Mon 11:29:48 AM 44.4042 -121.9769 354° North 438 504 34,000  Level Seattle Center
Mon 11:31:00 AM 44.5409 -122.0338 343° North  Level FlightAware Approximate
Mon 11:31:50 AM 44.6364 -122.0806 343° North 437 503 34,000  Level Seattle Center
Mon 11:33:00 AM 44.7684 -122.1348 344° North  Level FlightAware Approximate
Mon 11:33:52 AM 44.8678 -122.1861 344° North 437 503 34,000  Level Seattle Center
Mon 11:34:53 AM 44.9867 -122.2419 342° North 443 510 34,000  Level Seattle Center
Mon 11:35:00 AM 45.0212 -121.9541 354° North  Level Estimated
Mon 11:36:00 AM 45.1137 -122.2906 345° North  Level FlightAware Approximate
Mon 11:36:54 AM 45.1725 -122.4731 345° North 481 554 34,000  Level Seattle Center
Mon 11:38:56 AM 45.3911 -122.6406 332° Northwest 444 511 34,000  Level Seattle Center
Mon 11:39:57 AM 45.5025 -122.6267 North 419 482 34,000  Level Seattle Center
Mon 11:40:58 AM 45.6142 -122.6092 North 409 471 34,000 -623 Level Seattle Center
Mon 11:43:00 AM 45.8414 -122.6150 359° North 427 491 32,100 -1,344 Descending Seattle Center
Mon 11:44:01 AM 45.9594 -122.6436 350° North 431 496 29,900 -2,213 Descending Seattle Center
Mon 11:45:02 AM 46.0764 -122.6769 349° North 431 496 27,600 -2,164 Descending Seattle Center
Mon 11:46:03 AM 46.1853 -122.7347 340° North 419 482 25,500 -2,311 Descending Seattle Center
Mon 11:47:04 AM 46.3042 -122.7961 340° North 402 463 22,900 -2,164 Descending Seattle Center
Mon 11:48:05 AM 46.4031 -122.8442 341° North 385 443 21,100 -1,820 Descending Seattle Center
Mon 11:49:06 AM 46.4994 -122.8936 341° North 373 429 19,200 -1,721 Descending Seattle Center
Mon 11:50:07 AM 46.5928 -122.9344 343° North 361 415 17,600 -1,286 Descending Seattle Center
Mon 11:52:08 AM 46.7447 -122.8197 27° Northeast 316 364 15,300 -1,283 Descending Seattle Center
Mon 11:52:32 AM 46.7667 -122.7839 48° Northeast 310 357 14,500 -1,978 Descending Seattle Center
Mon 11:53:39 AM 46.8336 -122.6800 47° Northeast 308 354 12,300 -1,959 Descending Seattle Center
Mon 11:54:10 AM 46.8658 -122.6397 41° Northeast 313 360 11,300 -1,889 Descending Seattle Center
Mon 11:54:33 AM 46.8906 -122.6072 42° Northeast 318 366 10,600 -1,214 Descending Seattle Center
Mon 11:55:34 AM 46.9533 -122.5217 43° Northeast 288 331 9,600 -1,125 Descending Seattle Center
Mon 11:57:13 AM 47.0494 -122.4111 38° Northeast 270 311 7,600 -1,230 Descending Seattle Center
Mon 11:57:36 AM 47.0733 -122.3911 30° Northeast 262 302 7,100 -1,033 Descending Seattle Center
Mon 11:59:15 AM 47.1800 -122.3281 22° Northeast 239 275 5,500 -1,033 Descending Seattle Center
Mon 11:59:38 AM 47.2042 -122.3197 13° North 234 269 5,000 -1,180 Descending Seattle Center
Mon 12:00:16 PM 47.2439 -122.3156 North 234 269 4,300 -1,180 Descending Seattle Center
Mon 12:00:39 PM 47.2667 -122.3117 North 222 255 3,800 -787 Descending Seattle Center
Mon 12:01:17 PM 47.2936 -122.3114 360° North 222 255 3,500 -700 Descending Seattle Center
Mon 12:01:39 PM 47.3206 -122.3144 356° North 190 219 3,100 -984 Descending Seattle Center
Mon 12:02:18 PM 47.3447 -122.3122 North 203 234 2,500 -1,140 Descending Seattle Center
Mon 12:03:19 PM 47.3997 -122.3114 North 182 209 1,200 -1,157 Descending Seattle Center
Mon 12:03:41 PM 47.4136 -122.3125 357° North 154 177 900 -818 Descending Seattle Center

Login

Don't have an account? Register now (free) for customized features, flight alerts, and more!